Time;durP1;ratioP1;P1;durP2;ratioP2;P2;SDS_P1;SDS_P2;PMS_P1;PMS_P2;Temp;Humidity;BMP_temperature;BMP_pressure;BME280_temperature;BME280_humidity;BME280_pressure;Samples;Min_cycle;Max_cycle;Signal;HPM_P1;HPM_P2
2022/05/24 00:00:22;;;;;;;;;;;16.30;32.50;;;;;;7366481;19;19930;-61
2022/05/24 00:02:52;;;;;;;;;;;16.40;34.10;;;;;;7381638;19;19919;-62
2022/05/24 00:05:22;;;;;;;;;;;16.30;34.10;;;;;;7361922;19;19974;-61
2022/05/24 00:07:52;;;;;;;;;;;16.20;36.20;;;;;;7362327;19;19978;-62
2022/05/24 00:10:23;;;;;;;;;;;16.20;36.40;;;;;;7367206;19;20357;-61
2022/05/24 00:12:52;;;;;;;;;;;16.20;38.30;;;;;;7359555;19;19921;-61
2022/05/24 00:15:27;;;;;;;;;;;16.20;35.20;;;;;;7363696;19;19908;-61
2022/05/24 00:17:59;;;;;;;;;;;16.20;34.70;;;;;;7384740;19;19940;-61
2022/05/24 00:20:30;;;;;;;;;;;16.20;36.60;;;;;;7363534;19;20623;-62
2022/05/24 00:22:59;;;;;;;;;;;16.20;35.10;;;;;;7359928;19;19974;-62
2022/05/24 00:25:30;;;;;;;;;;;16.20;34.80;;;;;;7363389;19;19935;-61
2022/05/24 00:27:59;;;;;;;;;;;15.90;32.10;;;;;;7362623;19;20371;-62
2022/05/24 00:30:32;;;;;;;;;;;15.80;37.90;;;;;;7365157;19;19939;-62
2022/05/24 00:33:02;;;;;;;;;;;15.90;40.80;;;;;;7380478;19;19915;-63
2022/05/24 00:35:32;;;;;;;;;;;15.90;42.30;;;;;;7383491;19;19946;-62
2022/05/24 00:38:01;;;;;;;;;;;15.80;40.40;;;;;;7363101;19;19986;-61
2022/05/24 00:40:37;;;;;;;;;;;15.80;42.10;;;;;;7364146;19;19931;-60
2022/05/24 00:43:09;;;;;;;;;;;15.80;43.00;;;;;;7366268;19;19928;-60
2022/05/24 00:45:45;;;;;;;;;;;15.80;43.40;;;;;;7368216;19;19915;-60
2022/05/24 00:48:21;;;;;;;;;;;15.70;40.40;;;;;;7372769;19;20335;-60
2022/05/24 00:50:51;;;;;;;;;;;15.60;40.20;;;;;;7389985;19;19915;-61
2022/05/24 00:53:23;;;;;;;;;;;15.70;39.80;;;;;;7367062;19;19986;-60
2022/05/24 00:55:56;;;;;;;;;;;15.70;40.10;;;;;;7368571;19;19954;-60
2022/05/24 00:58:33;;;;;;;;;;;15.70;41.90;;;;;;7370341;19;20303;-61
2022/05/24 01:01:11;;;;;;;;;;;15.70;42.00;;;;;;7367054;19;19973;-61
2022/05/24 01:03:41;;;;;;;;;;;15.70;42.00;;;;;;7369325;19;20073;-61
2022/05/24 01:06:10;;;;;;;;;;;15.60;41.80;;;;;;7368736;19;19943;-62
2022/05/24 01:08:40;;;;;;;;;;;15.60;40.50;;;;;;7393408;19;19925;-61
2022/05/24 01:11:10;;;;;;;;;;;15.60;42.60;;;;;;7366380;19;21361;-61
2022/05/24 01:13:41;;;;;;;;;;;15.60;42.70;;;;;;7368467;19;20364;-61
2022/05/24 01:16:14;;;;;;;;;;;15.60;43.40;;;;;;7368074;19;19937;-61
2022/05/24 01:18:44;;;;;;;;;;;15.70;44.70;;;;;;7370661;19;19907;-61
2022/05/24 01:21:16;;;;;;;;;;;15.70;43.90;;;;;;7366203;19;19914;-62
2022/05/24 01:23:54;;;;;;;;;;;15.70;43.20;;;;;;7391072;19;19993;-62
2022/05/24 01:26:28;;;;;;;;;;;15.60;42.90;;;;;;7368567;19;20335;-61
2022/05/24 01:29:01;;;;;;;;;;;15.70;45.70;;;;;;7370040;19;19989;-61
2022/05/24 01:36:09;;;;;;;;;;;15.70;45.20;;;;;;7364355;19;19998;-61
2022/05/24 01:37:04;;;;;;;;;;;15.60;44.70;;;;;;7367817;19;19914;-61
2022/05/24 01:39:34;;;;;;;;;;;15.60;45.80;;;;;;7371146;19;19976;-61
2022/05/24 01:42:05;;;;;;;;;;;15.60;45.50;;;;;;7363187;19;19990;-61
2022/05/24 01:44:39;;;;;;;;;;;15.50;44.30;;;;;;7389996;19;20667;-61
2022/05/24 01:47:08;;;;;;;;;;;15.50;44.10;;;;;;7367816;19;19914;-61
2022/05/24 01:49:41;;;;;;;;;;;15.50;44.30;;;;;;7370033;19;20327;-61
2022/05/24 01:52:13;;;;;;;;;;;15.50;45.20;;;;;;7363311;19;19915;-61
2022/05/24 01:54:55;;;;;;;;;;;15.50;46.10;;;;;;7364917;19;20331;-61
2022/05/24 01:57:27;;;;;;;;;;;15.50;46.10;;;;;;7366856;19;20277;-61
2022/05/24 02:00:01;;;;;;;;;;;15.50;47.30;;;;;;7392127;19;19935;-61
2022/05/24 02:02:31;;;;;;;;;;;15.40;48.20;;;;;;7362982;19;19982;-61
2022/05/24 02:05:00;;;;;;;;;;;15.50;48.50;;;;;;7366209;19;19970;-61
2022/05/24 02:07:30;;;;;;;;;;;15.40;46.50;;;;;;7366826;19;20443;-60
2022/05/24 02:10:00;;;;;;;;;;;15.40;46.00;;;;;;7369282;19;20304;-60
2022/05/24 02:12:33;;;;;;;;;;;15.30;45.90;;;;;;7360759;19;19922;-61
2022/05/24 02:15:07;;;;;;;;;;;15.30;45.90;;;;;;7376247;19;19915;-60
2022/05/24 02:17:41;;;;;;;;;;;15.20;47.10;;;;;;7388726;19;19935;-60
2022/05/24 02:20:12;;;;;;;;;;;15.10;47.70;;;;;;7368878;19;19978;-60
2022/05/24 02:22:43;;;;;;;;;;;15.20;49.50;;;;;;7362001;19;20412;-60
2022/05/24 02:25:16;;;;;;;;;;;15.30;51.40;;;;;;7366517;19;19944;-61
2022/05/24 02:27:46;;;;;;;;;;;15.20;51.30;;;;;;7366544;19;19986;-61
2022/05/24 02:30:20;;;;;;;;;;;15.20;52.50;;;;;;7368810;19;19939;-62
2022/05/24 02:32:50;;;;;;;;;;;15.20;52.70;;;;;;7384314;19;19922;-62
2022/05/24 02:35:20;;;;;;;;;;;15.10;50.90;;;;;;7364835;19;19979;-61
2022/05/24 02:37:50;;;;;;;;;;;15.20;52.40;;;;;;7366005;19;19911;-61
2022/05/24 02:43:02;;;;;;;;;;;15.20;53.90;;;;;;7362016;19;19947;-62
2022/05/24 02:45:34;;;;;;;;;;;15.10;54.00;;;;;;7365140;19;20372;-61
2022/05/24 02:48:04;;;;;;;;;;;15.10;54.00;;;;;;7368059;19;20006;-62
2022/05/24 02:50:34;;;;;;;;;;;15.20;55.80;;;;;;7388933;19;19978;-61
2022/05/24 02:53:04;;;;;;;;;;;15.20;55.60;;;;;;7363472;19;19918;-61
2022/05/24 02:55:34;;;;;;;;;;;15.10;55.00;;;;;;7364627;19;19910;-61
2022/05/24 02:58:04;;;;;;;;;;;15.00;56.30;;;;;;7364549;19;19915;-61
2022/05/24 03:00:36;;;;;;;;;;;15.00;57.90;;;;;;7365794;19;19907;-62
2022/05/24 03:03:06;;;;;;;;;;;15.00;58.20;;;;;;7363796;19;19931;-62
2022/05/24 03:05:37;;;;;;;;;;;15.00;58.80;;;;;;7383240;19;20450;-61
2022/05/24 03:10:49;;;;;;;;;;;15.00;61.70;;;;;;7361607;19;19914;-61
2022/05/24 03:16:09;;;;;;;;;;;15.00;62.20;;;;;;7360583;19;19971;-60
2022/05/24 03:18:39;;;;;;;;;;;15.10;64.10;;;;;;7366138;19;19945;-61
2022/05/24 03:21:09;;;;;;;;;;;15.10;63.80;;;;;;7362050;19;20377;-61
2022/05/24 03:23:39;;;;;;;;;;;15.10;63.30;;;;;;7387199;19;19970;-60
2022/05/24 03:26:10;;;;;;;;;;;15.10;62.20;;;;;;7361765;19;19921;-60
2022/05/24 03:28:40;;;;;;;;;;;15.10;61.20;;;;;;7366593;19;19986;-61
2022/05/24 03:31:12;;;;;;;;;;;15.10;61.70;;;;;;7362465;19;20296;-60
2022/05/24 03:33:42;;;;;;;;;;;15.10;62.10;;;;;;7363513;19;19918;-61
2022/05/24 03:36:12;;;;;;;;;;;15.10;61.90;;;;;;7362572;19;20288;-61
2022/05/24 03:38:41;;;;;;;;;;;15.30;63.50;;;;;;7389392;19;20746;-61
2022/05/24 03:41:11;;;;;;;;;;;15.20;60.70;;;;;;7361865;19;19918;-61
2022/05/24 03:43:41;;;;;;;;;;;15.20;61.40;;;;;;7366215;19;19919;-60
2022/05/24 03:46:13;;;;;;;;;;;15.30;61.50;;;;;;7363311;19;19918;-60
2022/05/24 03:48:43;;;;;;;;;;;15.30;59.90;;;;;;7366068;19;19911;-60
2022/05/24 03:51:13;;;;;;;;;;;15.30;59.80;;;;;;7361416;19;19986;-60
2022/05/24 03:53:42;;;;;;;;;;;15.50;60.30;;;;;;7387155;19;19974;-61
2022/05/24 03:56:12;;;;;;;;;;;15.80;56.50;;;;;;7362125;19;19935;-62
2022/05/24 03:58:42;;;;;;;;;;;16.00;49.50;;;;;;7366456;19;20286;-62
2022/05/24 04:01:15;;;;;;;;;;;16.00;49.00;;;;;;7362338;19;19929;-62
2022/05/24 04:03:44;;;;;;;;;;;15.70;49.30;;;;;;7364600;19;19910;-62
2022/05/24 04:06:14;;;;;;;;;;;15.70;51.90;;;;;;7362321;19;20351;-62
2022/05/24 04:08:45;;;;;;;;;;;15.60;51.30;;;;;;7387845;19;20335;-62
2022/05/24 04:11:15;;;;;;;;;;;15.60;51.90;;;;;;7360176;19;19915;-62
2022/05/24 04:13:45;;;;;;;;;;;15.60;52.00;;;;;;7366273;19;20339;-62
2022/05/24 04:16:17;;;;;;;;;;;15.70;51.90;;;;;;7363269;19;19941;-61
2022/05/24 04:18:46;;;;;;;;;;;15.70;49.40;;;;;;7374076;19;19971;-61
2022/05/24 04:21:16;;;;;;;;;;;15.70;49.50;;;;;;7367145;19;19943;-61
2022/05/24 04:23:46;;;;;;;;;;;15.70;49.70;;;;;;7394140;19;20366;-62
2022/05/24 04:26:16;;;;;;;;;;;15.60;48.30;;;;;;7368899;19;21087;-61
2022/05/24 04:28:46;;;;;;;;;;;15.60;49.60;;;;;;7373688;19;20034;-61
2022/05/24 04:31:18;;;;;;;;;;;15.70;47.50;;;;;;7368185;19;19918;-61
2022/05/24 04:33:48;;;;;;;;;;;15.80;49.50;;;;;;7371446;19;19952;-61
2022/05/24 04:36:17;;;;;;;;;;;15.70;48.00;;;;;;7370054;19;19939;-61
2022/05/24 04:38:47;;;;;;;;;;;15.80;48.00;;;;;;7394396;19;19922;-60
2022/05/24 04:44:03;;;;;;;;;;;16.00;46.50;;;;;;7370618;19;19990;-60
2022/05/24 04:49:17;;;;;;;;;;;18.00;22.00;;;;;;7371743;19;19982;-61
2022/05/24 04:51:47;;;;;;;;;;;17.30;17.70;;;;;;7366245;19;19914;-61
2022/05/24 04:54:17;;;;;;;;;;;16.70;27.70;;;;;;7370362;19;20324;-62
2022/05/24 04:56:46;;;;;;;;;;;16.40;32.00;;;;;;7390982;19;19929;-60
2022/05/24 04:59:16;;;;;;;;;;;16.20;37.20;;;;;;7372072;19;20027;-61
2022/05/24 05:01:51;;;;;;;;;;;16.10;38.40;;;;;;7363101;19;19994;-61
2022/05/24 05:04:22;;;;;;;;;;;15.80;42.80;;;;;;7369138;19;19925;-61
2022/05/24 05:06:52;;;;;;;;;;;15.90;44.50;;;;;;7368736;19;20061;-61
2022/05/24 05:09:22;;;;;;;;;;;15.80;47.20;;;;;;7370730;19;20003;-61
2022/05/24 05:11:52;;;;;;;;;;;15.90;48.10;;;;;;7387048;19;19948;-61
2022/05/24 05:14:22;;;;;;;;;;;15.90;46.40;;;;;;7368599;19;19907;-61
2022/05/24 05:16:55;;;;;;;;;;;15.90;44.80;;;;;;7367305;19;20063;-61
2022/05/24 05:19:24;;;;;;;;;;;16.00;45.20;;;;;;7370087;19;19906;-60
2022/05/24 05:21:54;;;;;;;;;;;16.10;43.90;;;;;;7363980;19;20348;-61
2022/05/24 05:24:24;;;;;;;;;;;16.50;43.40;;;;;;7368834;19;19923;-62
2022/05/24 05:26:53;;;;;;;;;;;16.40;36.70;;;;;;7389625;19;19919;-61
2022/05/24 05:32:08;;;;;;;;;;;16.30;34.10;;;;;;7362100;19;20010;-61
2022/05/24 05:34:39;;;;;;;;;;;16.30;33.30;;;;;;7366973;19;19911;-61
2022/05/24 05:37:08;;;;;;;;;;;16.50;31.10;;;;;;7368028;19;19986;-61
2022/05/24 05:39:38;;;;;;;;;;;16.70;30.80;;;;;;7369947;19;20301;-62
2022/05/24 05:42:09;;;;;;;;;;;16.80;31.70;;;;;;7363805;19;19919;-63
2022/05/24 05:44:38;;;;;;;;;;;16.80;29.40;;;;;;7389064;19;19945;-62
2022/05/24 05:47:11;;;;;;;;;;;16.90;28.70;;;;;;7364425;19;19934;-62
2022/05/24 05:49:41;;;;;;;;;;;17.00;27.80;;;;;;7369402;19;19910;-62
2022/05/24 05:52:10;;;;;;;;;;;17.00;24.20;;;;;;7364308;19;19906;-60
2022/05/24 05:54:40;;;;;;;;;;;16.90;26.80;;;;;;7367217;19;20685;-62
2022/05/24 05:57:11;;;;;;;;;;;17.00;24.10;;;;;;7365437;19;19921;-61
2022/05/24 05:59:40;;;;;;;;;;;16.90;23.60;;;;;;7389752;19;19929;-61
2022/05/24 06:02:12;;;;;;;;;;;16.70;22.10;;;;;;7362172;19;19926;-61
2022/05/24 06:04:42;;;;;;;;;;;16.80;21.00;;;;;;7367216;19;19921;-60
2022/05/24 06:07:12;;;;;;;;;;;16.90;20.70;;;;;;7366744;19;19907;-61
2022/05/24 06:09:42;;;;;;;;;;;17.30;20.00;;;;;;7368145;19;19918;-62
2022/05/24 06:12:12;;;;;;;;;;;19.80;3.20;;;;;;7362689;19;19978;-62
2022/05/24 06:14:42;;;;;;;;;;;20.40;1.00;;;;;;7388585;19;19967;-61
2022/05/24 06:17:30;;;;;;;;;;;19.50;1.00;;;;;;7365720;19;19914;-61
2022/05/24 06:20:01;;;;;;;;;;;18.90;1.00;;;;;;7368221;19;20359;-61
2022/05/24 06:22:30;;;;;;;;;;;18.60;3.50;;;;;;7362361;19;19935;-62
2022/05/24 06:25:00;;;;;;;;;;;18.40;3.90;;;;;;7367120;19;19939;-61
2022/05/24 06:27:30;;;;;;;;;;;18.10;6.40;;;;;;7365412;19;19967;-60
2022/05/24 06:29:59;;;;;;;;;;;18.10;7.10;;;;;;7389999;19;19929;-62
2022/05/24 06:32:31;;;;;;;;;;;18.00;7.90;;;;;;7362372;19;19983;-61
2022/05/24 06:35:01;;;;;;;;;;;18.10;5.80;;;;;;7365285;19;20596;-61
2022/05/24 06:37:31;;;;;;;;;;;18.20;4.30;;;;;;7364761;19;20363;-61
2022/05/24 06:40:00;;;;;;;;;;;18.40;3.90;;;;;;7365700;19;20353;-62
2022/05/24 06:42:30;;;;;;;;;;;18.30;3.30;;;;;;7362112;19;19911;-62
2022/05/24 06:45:01;;;;;;;;;;;17.90;3.60;;;;;;7387088;19;19942;-61
2022/05/24 06:47:33;;;;;;;;;;;17.70;4.30;;;;;;7363917;19;19966;-61
2022/05/24 06:50:03;;;;;;;;;;;17.70;4.80;;;;;;7366565;19;19985;-61
2022/05/24 06:52:32;;;;;;;;;;;17.60;4.80;;;;;;7360938;19;19960;-61
2022/05/24 06:55:02;;;;;;;;;;;17.50;5.40;;;;;;7365279;19;19978;-60
2022/05/24 06:57:32;;;;;;;;;;;17.40;5.30;;;;;;7364128;19;19918;-61
2022/05/24 07:02:48;;;;;;;;;;;16.70;8.60;;;;;;7361067;19;19982;-60
2022/05/24 07:05:21;;;;;;;;;;;14.20;17.00;;;;;;7365081;19;19927;-61
2022/05/24 07:07:51;;;;;;;;;;;13.60;18.50;;;;;;7362843;19;19986;-61
2022/05/24 07:10:20;;;;;;;;;;;13.20;21.10;;;;;;7366355;19;20130;-62
2022/05/24 07:12:59;;;;;;;;;;;13.30;23.00;;;;;;7362074;19;19911;-62
2022/05/24 07:15:29;;;;;;;;;;;13.10;21.20;;;;;;7365689;19;19930;-62
2022/05/24 07:18:01;;;;;;;;;;;13.30;26.90;;;;;;7386072;19;19914;-61
2022/05/24 07:20:33;;;;;;;;;;;13.30;25.60;;;;;;7366106;19;20308;-61
2022/05/24 07:23:10;;;;;;;;;;;13.40;25.40;;;;;;7362880;19;19921;-61
2022/05/24 07:25:41;;;;;;;;;;;13.40;25.10;;;;;;7363230;19;19974;-61
2022/05/24 07:28:11;;;;;;;;;;;13.60;24.60;;;;;;7365022;19;19949;-63
2022/05/24 07:30:41;;;;;;;;;;;13.70;24.60;;;;;;7363133;19;20355;-60
2022/05/24 07:33:16;;;;;;;;;;;13.80;19.10;;;;;;7363939;19;19918;-61
2022/05/24 07:35:45;;;;;;;;;;;13.90;22.40;;;;;;7382602;19;19912;-62
2022/05/24 07:38:15;;;;;;;;;;;13.90;21.30;;;;;;7365845;19;20006;-61
2022/05/24 07:46:11;;;;;;;;;;;14.10;19.40;;;;;;7363046;19;20395;-61
2022/05/24 07:48:44;;;;;;;;;;;14.20;17.90;;;;;;7365457;19;19934;-61
2022/05/24 07:51:13;;;;;;;;;;;14.60;18.40;;;;;;7357735;19;19918;-62
2022/05/24 07:53:43;;;;;;;;;;;14.60;14.70;;;;;;7386755;19;19906;-61
2022/05/24 07:56:15;;;;;;;;;;;14.60;14.00;;;;;;7362475;19;19915;-62
2022/05/24 07:58:45;;;;;;;;;;;14.70;14.70;;;;;;7365843;19;19929;-61
2022/05/24 08:01:16;;;;;;;;;;;14.40;15.40;;;;;;7359203;19;19925;-60
2022/05/24 08:03:48;;;;;;;;;;;14.50;14.50;;;;;;7366816;19;20382;-60
2022/05/24 08:06:18;;;;;;;;;;;14.40;9.90;;;;;;7363032;19;19923;-61
2022/05/24 08:08:47;;;;;;;;;;;14.80;13.50;;;;;;7386014;19;19943;-61
2022/05/24 08:11:17;;;;;;;;;;;14.60;7.70;;;;;;7358736;19;19913;-60
2022/05/24 08:13:47;;;;;;;;;;;14.60;9.30;;;;;;7365713;19;19921;-62
2022/05/24 08:16:16;;;;;;;;;;;14.50;9.90;;;;;;7361767;19;19954;-61
2022/05/24 08:18:49;;;;;;;;;;;14.50;10.80;;;;;;7365982;19;19973;-60
2022/05/24 08:21:18;;;;;;;;;;;14.80;9.60;;;;;;7359184;19;19915;-62
2022/05/24 08:23:48;;;;;;;;;;;14.90;6.20;;;;;;7385962;19;19977;-62
2022/05/24 08:26:18;;;;;;;;;;;14.90;6.50;;;;;;7360953;19;20380;-61
2022/05/24 08:28:48;;;;;;;;;;;15.40;6.80;;;;;;7364359;19;19910;-61
2022/05/24 08:31:18;;;;;;;;;;;15.20;2.80;;;;;;7358738;19;19914;-61
2022/05/24 08:33:51;;;;;;;;;;;15.10;1.60;;;;;;7364866;19;19910;-61
2022/05/24 08:36:21;;;;;;;;;;;15.10;1.00;;;;;;7361693;19;19985;-61
2022/05/24 08:38:51;;;;;;;;;;;15.50;1.00;;;;;;7387062;19;19926;-62
2022/05/24 08:41:30;;;;;;;;;;;15.40;1.00;;;;;;7358698;19;19935;-62
2022/05/24 08:49:57;;;;;;;;;;;15.60;1.00;;;;;;7364329;19;19947;-61
2022/05/24 08:52:31;;;;;;;;;;;15.70;1.00;;;;;;7358392;19;20025;-61
2022/05/24 08:55:02;;;;;;;;;;;15.90;1.00;;;;;;7363183;19;20626;-62
2022/05/24 08:57:36;;;;;;;;;;;16.10;1.00;;;;;;7362211;19;20403;-63
2022/05/24 09:00:08;;;;;;;;;;;16.30;1.00;;;;;;7364622;19;19928;-62
2022/05/24 09:02:39;;;;;;;;;;;16.80;1.00;;;;;;7381601;19;19947;-62
2022/05/24 09:05:18;;;;;;;;;;;17.10;1.00;;;;;;7368698;19;19915;-62
2022/05/24 09:07:51;;;;;;;;;;;17.50;1.00;;;;;;7368547;19;19919;-61
2022/05/24 09:10:22;;;;;;;;;;;17.60;1.00;;;;;;7370801;19;19911;-62
2022/05/24 09:13:06;;;;;;;;;;;17.20;1.00;;;;;;7366575;19;19989;-61
2022/05/24 09:15:39;;;;;;;;;;;17.30;1.00;;;;;;7368565;19;19932;-62
2022/05/24 09:18:14;;;;;;;;;;;17.10;1.00;;;;;;7371289;19;19915;-62
2022/05/24 09:20:47;;;;;;;;;;;17.40;1.00;;;;;;7389151;19;19918;-62
2022/05/24 09:23:19;;;;;;;;;;;17.20;1.00;;;;;;7368334;19;19907;-61
2022/05/24 09:25:57;;;;;;;;;;;17.20;1.00;;;;;;7366089;19;20432;-61
2022/05/24 09:28:42;;;;;;;;;;;17.70;1.00;;;;;;7370219;19;19999;-62
2022/05/24 09:31:12;;;;;;;;;;;17.10;1.00;;;;;;7366714;19;19986;-62
2022/05/24 09:33:44;;;;;;;;;;;17.00;1.00;;;;;;7370344;19;19913;-62
2022/05/24 09:36:26;;;;;;;;;;;17.00;1.00;;;;;;7366838;19;20324;-61
2022/05/24 09:38:56;;;;;;;;;;;17.10;1.00;;;;;;7391962;19;19914;-61
2022/05/24 09:41:26;;;;;;;;;;;16.70;1.00;;;;;;7363210;19;20650;-61
2022/05/24 09:44:00;;;;;;;;;;;17.20;1.00;;;;;;7367982;19;20333;-62
2022/05/24 09:46:31;;;;;;;;;;;17.50;1.00;;;;;;7367618;19;19974;-61
2022/05/24 09:49:03;;;;;;;;;;;17.50;1.00;;;;;;7369690;19;19906;-61
2022/05/24 09:51:38;;;;;;;;;;;17.80;1.00;;;;;;7364263;19;19933;-62
2022/05/24 09:54:14;;;;;;;;;;;17.80;1.00;;;;;;7368615;19;19949;-61
2022/05/24 09:57:00;;;;;;;;;;;17.40;1.00;;;;;;7387923;19;19910;-61
2022/05/24 09:59:30;;;;;;;;;;;18.50;1.00;;;;;;7369708;19;19922;-62
2022/05/24 10:02:01;;;;;;;;;;;18.50;1.00;;;;;;7362868;19;19919;-60
2022/05/24 10:04:35;;;;;;;;;;;18.80;1.00;;;;;;7368582;19;20653;-62
2022/05/24 10:07:10;;;;;;;;;;;18.60;1.00;;;;;;7366244;19;19921;-60
2022/05/24 10:09:57;;;;;;;;;;;18.40;1.00;;;;;;7368033;19;19918;-61
2022/05/24 10:12:43;;;;;;;;;;;18.80;1.00;;;;;;7363645;19;19990;-62
2022/05/24 10:15:17;;;;;;;;;;;19.10;1.00;;;;;;7363881;19;19918;-62
2022/05/24 10:17:51;;;;;;;;;;;18.80;1.00;;;;;;7388211;19;19914;-61
2022/05/24 10:20:25;;;;;;;;;;;18.40;1.00;;;;;;7367402;19;20021;-61
2022/05/24 10:23:01;;;;;;;;;;;18.60;1.00;;;;;;7364020;19;20001;-61
2022/05/24 10:25:32;;;;;;;;;;;18.20;1.00;;;;;;7366967;19;20332;-62
2022/05/24 10:28:06;;;;;;;;;;;18.30;1.00;;;;;;7368147;19;19925;-62
2022/05/24 10:30:44;;;;;;;;;;;18.40;1.00;;;;;;7365594;19;19922;-60
2022/05/24 10:39:01;;;;;;;;;;;18.80;1.00;;;;;;7389108;19;19922;-62
2022/05/24 10:41:36;;;;;;;;;;;19.80;1.00;;;;;;7362006;19;19974;-61
2022/05/24 10:44:07;;;;;;;;;;;19.10;1.00;;;;;;7366844;19;19919;-62
2022/05/24 10:46:41;;;;;;;;;;;18.30;1.00;;;;;;7365410;19;20005;-60
2022/05/24 10:49:16;;;;;;;;;;;18.10;1.00;;;;;;7366664;19;19939;-61
2022/05/24 10:51:49;;;;;;;;;;;18.90;1.00;;;;;;7360031;19;19968;-61
2022/05/24 10:54:26;;;;;;;;;;;19.20;1.00;;;;;;7365340;19;19926;-61
2022/05/24 10:56:57;;;;;;;;;;;19.20;1.00;;;;;;7385097;19;19967;-62
2022/05/24 10:59:39;;;;;;;;;;;19.40;1.00;;;;;;7366386;19;20262;-62
2022/05/24 11:02:14;;;;;;;;;;;19.80;1.00;;;;;;7360079;19;19918;-62
2022/05/24 11:04:49;;;;;;;;;;;20.10;1.00;;;;;;7365272;19;20348;-62
2022/05/24 11:07:20;;;;;;;;;;;19.80;1.00;;;;;;7357809;19;20050;-62
2022/05/24 11:09:56;;;;;;;;;;;20.20;1.00;;;;;;7363937;19;19946;-60
2022/05/24 11:12:33;;;;;;;;;;;20.30;1.00;;;;;;7360800;19;19982;-61
2022/05/24 11:15:06;;;;;;;;;;;20.50;1.00;;;;;;7377627;19;19911;-63
2022/05/24 11:17:35;;;;;;;;;;;20.40;1.00;;;;;;7385415;19;19993;-61
2022/05/24 11:20:06;;;;;;;;;;;20.40;1.00;;;;;;7364600;19;19940;-61
2022/05/24 11:22:39;;;;;;;;;;;19.30;1.00;;;;;;7359251;19;20013;-61
2022/05/24 11:25:14;;;;;;;;;;;19.20;1.00;;;;;;7364687;19;19919;-61
2022/05/24 11:27:45;;;;;;;;;;;19.60;1.00;;;;;;7360764;19;19922;-61
2022/05/24 11:30:17;;;;;;;;;;;18.80;1.00;;;;;;7364673;19;19958;-62
2022/05/24 11:32:49;;;;;;;;;;;19.00;1.00;;;;;;7380468;19;19982;-61
2022/05/24 11:35:27;;;;;;;;;;;18.70;1.00;;;;;;7360575;19;19961;-61
2022/05/24 11:37:58;;;;;;;;;;;19.60;1.00;;;;;;7361594;19;19969;-62
2022/05/24 11:40:39;;;;;;;;;;;19.40;1.00;;;;;;7366037;19;19915;-62
2022/05/24 11:43:10;;;;;;;;;;;19.80;1.00;;;;;;7364087;19;19974;-61
2022/05/24 11:45:58;;;;;;;;;;;19.90;1.00;;;;;;7362750;19;19919;-61
2022/05/24 11:48:42;;;;;;;;;;;20.40;1.00;;;;;;7365407;19;20343;-61
2022/05/24 11:51:27;;;;;;;;;;;20.40;1.00;;;;;;7361783;19;19918;-62
2022/05/24 11:53:56;;;;;;;;;;;20.50;1.00;;;;;;7386861;19;19926;-62
2022/05/24 11:56:29;;;;;;;;;;;20.40;1.00;;;;;;7364392;19;19914;-62
2022/05/24 11:59:01;;;;;;;;;;;20.60;1.00;;;;;;7363098;19;19918;-62
2022/05/24 12:01:40;;;;;;;;;;;20.20;1.00;;;;;;7360509;19;19915;-60
2022/05/24 12:10:10;;;;;;;;;;;21.30;1.00;;;;;;7364791;19;19910;-61
2022/05/24 12:12:47;;;;;;;;;;;19.90;1.00;;;;;;7359993;19;19921;-61
2022/05/24 12:15:18;;;;;;;;;;;20.70;1.00;;;;;;7364274;19;20783;-60
2022/05/24 12:17:49;;;;;;;;;;;20.10;1.00;;;;;;7382892;19;19918;-60
2022/05/24 12:20:30;;;;;;;;;;;19.80;1.00;;;;;;7364170;19;19991;-61
2022/05/24 12:23:16;;;;;;;;;;;20.20;1.00;;;;;;7357551;19;19918;-60
2022/05/24 12:25:54;;;;;;;;;;;20.20;1.00;;;;;;7363017;19;19914;-60
2022/05/24 12:28:27;;;;;;;;;;;19.80;1.00;;;;;;7361845;19;19911;-60
2022/05/24 12:30:58;;;;;;;;;;;20.20;1.00;;;;;;7362067;19;19951;-60
2022/05/24 12:33:35;;;;;;;;;;;19.50;1.00;;;;;;7362188;19;20300;-62
2022/05/24 12:36:15;;;;;;;;;;;20.10;1.00;;;;;;7361515;19;19997;-62
2022/05/24 12:38:49;;;;;;;;;;;20.40;1.00;;;;;;7390108;19;19922;-61
2022/05/24 12:41:21;;;;;;;;;;;19.90;1.00;;;;;;7367049;19;20282;-60
2022/05/24 12:43:54;;;;;;;;;;;19.80;1.00;;;;;;7370958;19;20064;-61
2022/05/24 12:46:25;;;;;;;;;;;19.30;1.00;;;;;;7370653;19;19910;-61
2022/05/24 12:48:59;;;;;;;;;;;20.10;1.00;;;;;;7370309;19;19911;-61
2022/05/24 12:51:29;;;;;;;;;;;20.30;1.00;;;;;;7365411;19;19928;-62
2022/05/24 12:54:10;;;;;;;;;;;20.20;1.00;;;;;;7392377;19;19925;-61
2022/05/24 12:56:40;;;;;;;;;;;20.10;1.00;;;;;;7370073;19;19948;-61
2022/05/24 12:59:16;;;;;;;;;;;19.30;1.00;;;;;;7369171;19;20572;-61
2022/05/24 13:01:46;;;;;;;;;;;19.70;1.00;;;;;;7365947;19;19970;-61
2022/05/24 13:04:19;;;;;;;;;;;19.60;1.00;;;;;;7369328;19;19974;-61
2022/05/24 13:06:49;;;;;;;;;;;19.40;1.00;;;;;;7370376;19;19957;-63
2022/05/24 13:09:24;;;;;;;;;;;19.40;1.00;;;;;;7369376;19;19925;-61
2022/05/24 13:11:55;;;;;;;;;;;19.70;1.00;;;;;;7385341;19;19992;-62
2022/05/24 13:14:40;;;;;;;;;;;19.70;1.00;;;;;;7368934;19;19925;-61
2022/05/24 13:17:13;;;;;;;;;;;19.60;1.00;;;;;;7369550;19;19987;-61
2022/05/24 13:19:45;;;;;;;;;;;19.40;1.00;;;;;;7370164;19;19921;-61
2022/05/24 13:22:15;;;;;;;;;;;19.20;1.00;;;;;;7365009;19;19970;-61
2022/05/24 13:24:59;;;;;;;;;;;19.40;1.00;;;;;;7369926;19;20017;-62
2022/05/24 13:27:49;;;;;;;;;;;19.40;1.00;;;;;;7364859;19;19914;-62
2022/05/24 13:36:02;;;;;;;;;;;18.80;1.00;;;;;;7388669;19;19964;-61
2022/05/24 13:38:31;;;;;;;;;;;19.00;1.00;;;;;;7367788;19;19952;-61
2022/05/24 13:41:01;;;;;;;;;;;19.20;1.00;;;;;;7366807;19;19911;-61
2022/05/24 13:43:35;;;;;;;;;;;19.50;1.00;;;;;;7367155;19;19982;-62
2022/05/24 13:46:16;;;;;;;;;;;19.20;1.00;;;;;;7364227;19;19974;-61
2022/05/24 13:48:47;;;;;;;;;;;19.80;1.00;;;;;;7367719;19;19910;-61
2022/05/24 13:51:20;;;;;;;;;;;19.60;1.00;;;;;;7366208;19;19914;-61
2022/05/24 13:53:50;;;;;;;;;;;19.40;1.00;;;;;;7389303;19;19915;-61
2022/05/24 13:56:22;;;;;;;;;;;19.40;1.00;;;;;;7368343;19;19915;-61
2022/05/24 13:58:53;;;;;;;;;;;19.60;1.00;;;;;;7366567;19;19935;-62
2022/05/24 14:01:40;;;;;;;;;;;20.20;1.00;;;;;;7364015;19;19915;-61
2022/05/24 14:04:15;;;;;;;;;;;21.00;1.00;;;;;;7367176;19;19961;-61
2022/05/24 14:06:49;;;;;;;;;;;20.00;1.00;;;;;;7367571;19;20596;-62
2022/05/24 14:09:19;;;;;;;;;;;19.80;1.00;;;;;;7368061;19;19923;-61
2022/05/24 14:11:51;;;;;;;;;;;20.20;1.00;;;;;;7385103;19;20007;-61
2022/05/24 14:14:20;;;;;;;;;;;20.30;1.00;;;;;;7368400;19;19921;-60
2022/05/24 14:16:53;;;;;;;;;;;20.10;1.00;;;;;;7365907;19;19982;-62
2022/05/24 14:19:24;;;;;;;;;;;20.40;1.00;;;;;;7366071;19;19927;-61
2022/05/24 14:21:54;;;;;;;;;;;19.70;1.00;;;;;;7363513;19;20409;-62
2022/05/24 14:24:27;;;;;;;;;;;20.30;1.00;;;;;;7365154;19;19943;-61
2022/05/24 14:26:59;;;;;;;;;;;19.80;1.00;;;;;;7388062;19;20284;-63
2022/05/24 14:29:30;;;;;;;;;;;20.30;1.00;;;;;;7366856;19;19978;-62
2022/05/24 14:32:02;;;;;;;;;;;19.90;1.00;;;;;;7360195;19;19911;-61
2022/05/24 14:34:32;;;;;;;;;;;20.00;1.00;;;;;;7367570;19;19914;-62
2022/05/24 14:37:03;;;;;;;;;;;20.50;1.00;;;;;;7367721;19;20246;-63
2022/05/24 14:39:33;;;;;;;;;;;20.10;1.00;;;;;;7365213;19;20606;-61
2022/05/24 14:42:02;;;;;;;;;;;20.30;1.00;;;;;;7382955;19;19928;-66
2022/05/24 14:44:35;;;;;;;;;;;19.90;1.00;;;;;;7388790;19;19931;-62
2022/05/24 14:47:07;;;;;;;;;;;19.80;1.00;;;;;;7366206;19;20366;-61
2022/05/24 14:49:37;;;;;;;;;;;19.80;1.00;;;;;;7366748;19;19971;-62
2022/05/24 14:52:09;;;;;;;;;;;19.70;1.00;;;;;;7362157;19;20319;-61
2022/05/24 14:54:41;;;;;;;;;;;19.70;1.00;;;;;;7365901;19;20353;-61
2022/05/24 14:57:13;;;;;;;;;;;19.50;1.00;;;;;;7365723;19;19922;-62
2022/05/24 14:59:43;;;;;;;;;;;19.80;1.00;;;;;;7387099;19;19918;-63
2022/05/24 15:02:17;;;;;;;;;;;19.40;1.00;;;;;;7362864;19;20499;-62
2022/05/24 15:04:46;;;;;;;;;;;20.10;1.00;;;;;;7365455;19;19911;-62
2022/05/24 15:15:24;;;;;;;;;;;19.80;1.00;;;;;;7364902;19;22210;-61
2022/05/24 15:17:56;;;;;;;;;;;20.30;1.00;;;;;;7384962;19;19910;-62
2022/05/24 15:20:27;;;;;;;;;;;20.10;1.00;;;;;;7365081;19;19914;-61
2022/05/24 15:23:01;;;;;;;;;;;20.20;1.00;;;;;;7364269;19;19914;-62
2022/05/24 15:25:31;;;;;;;;;;;19.70;1.00;;;;;;7364822;19;19922;-61
2022/05/24 15:28:03;;;;;;;;;;;19.50;1.00;;;;;;7362730;19;20309;-61
2022/05/24 15:30:33;;;;;;;;;;;19.90;1.00;;;;;;7365804;19;19939;-62
2022/05/24 15:33:05;;;;;;;;;;;20.40;1.00;;;;;;7382957;19;19910;-65
2022/05/24 15:35:35;;;;;;;;;;;20.40;1.00;;;;;;7385790;19;19925;-61
2022/05/24 15:38:05;;;;;;;;;;;20.20;1.00;;;;;;7362194;19;19918;-62
2022/05/24 15:40:36;;;;;;;;;;;20.20;1.00;;;;;;7364545;19;20342;-62
2022/05/24 15:45:17;;;;;;;2.65;0.75;;;20.20;1.00;;;;;;7398247;19;20650;-61
2022/05/24 15:47:47;;;;;;;2.13;0.52;;;20.00;1.00;;;;;;7418819;19;20010;-61
2022/05/24 15:50:17;;;;;;;1.05;0.57;;;19.80;1.00;;;;;;7400362;19;20050;-61
2022/05/24 15:52:48;;;;;;;2.60;0.40;;;19.70;1.00;;;;;;7395013;19;20018;-61